sensor_id;sensor_type;location;lat;lon;timestamp;temperature;humidity
18654;DHT22;9456;47.824;16.228;2023-05-16T00:01:59;10.40;99.90
18654;DHT22;9456;47.824;16.228;2023-05-16T00:04:28;10.40;99.90
18654;DHT22;9456;47.824;16.228;2023-05-16T00:06:57;10.40;99.90
18654;DHT22;9456;47.824;16.228;2023-05-16T00:09:26;10.40;99.90
18654;DHT22;9456;47.824;16.228;2023-05-16T00:11:55;10.40;99.90
18654;DHT22;9456;47.824;16.228;2023-05-16T00:14:24;10.40;99.90
18654;DHT22;9456;47.824;16.228;2023-05-16T00:16:53;10.40;99.90
18654;DHT22;9456;47.824;16.228;2023-05-16T00:19:22;10.40;99.90
18654;DHT22;9456;47.824;16.228;2023-05-16T00:21:51;10.40;99.90
18654;DHT22;9456;47.824;16.228;2023-05-16T00:24:20;10.30;99.90
18654;DHT22;9456;47.824;16.228;2023-05-16T00:26:49;10.40;99.90
18654;DHT22;9456;47.824;16.228;2023-05-16T00:29:18;10.30;99.90
18654;DHT22;9456;47.824;16.228;2023-05-16T00:31:47;10.30;99.90
18654;DHT22;9456;47.824;16.228;2023-05-16T00:34:16;10.30;99.90
18654;DHT22;9456;47.824;16.228;2023-05-16T00:36:45;10.20;99.90
18654;DHT22;9456;47.824;16.228;2023-05-16T00:39:16;10.20;99.90
18654;DHT22;9456;47.824;16.228;2023-05-16T00:41:45;10.20;99.90
18654;DHT22;9456;47.824;16.228;2023-05-16T00:44:14;10.20;99.90
18654;DHT22;9456;47.824;16.228;2023-05-16T00:46:43;10.20;99.90
18654;DHT22;9456;47.824;16.228;2023-05-16T00:49:12;10.20;99.90
18654;DHT22;9456;47.824;16.228;2023-05-16T00:51:41;10.20;99.90
18654;DHT22;9456;47.824;16.228;2023-05-16T00:54:10;10.10;99.90
18654;DHT22;9456;47.824;16.228;2023-05-16T00:56:39;10.10;99.90
18654;DHT22;9456;47.824;16.228;2023-05-16T00:59:08;10.10;99.90
18654;DHT22;9456;47.824;16.228;2023-05-16T01:01:37;10.20;99.90
18654;DHT22;9456;47.824;16.228;2023-05-16T01:04:06;10.10;99.90
18654;DHT22;9456;47.824;16.228;2023-05-16T01:06:35;10.10;99.90
18654;DHT22;9456;47.824;16.228;2023-05-16T01:09:04;10.10;99.90
18654;DHT22;9456;47.824;16.228;2023-05-16T01:11:35;10.10;99.90
18654;DHT22;9456;47.824;16.228;2023-05-16T01:14:07;10.10;99.90
18654;DHT22;9456;47.824;16.228;2023-05-16T01:16:35;10.10;99.90
18654;DHT22;9456;47.824;16.228;2023-05-16T01:19:06;10.10;99.90
18654;DHT22;9456;47.824;16.228;2023-05-16T01:21:37;10.10;99.90
18654;DHT22;9456;47.824;16.228;2023-05-16T01:24:12;10.10;99.90
18654;DHT22;9456;47.824;16.228;2023-05-16T01:26:38;10.10;99.90
18654;DHT22;9456;47.824;16.228;2023-05-16T01:29:07;10.20;99.90
18654;DHT22;9456;47.824;16.228;2023-05-16T01:31:36;10.20;99.90
18654;DHT22;9456;47.824;16.228;2023-05-16T01:34:05;10.20;99.90
18654;DHT22;9456;47.824;16.228;2023-05-16T01:36:38;10.30;99.90
18654;DHT22;9456;47.824;16.228;2023-05-16T01:39:06;10.30;99.90
18654;DHT22;9456;47.824;16.228;2023-05-16T01:41:42;10.30;99.90
18654;DHT22;9456;47.824;16.228;2023-05-16T01:44:15;10.40;99.90
18654;DHT22;9456;47.824;16.228;2023-05-16T01:46:43;10.30;99.90
18654;DHT22;9456;47.824;16.228;2023-05-16T01:49:14;10.40;99.90
18654;DHT22;9456;47.824;16.228;2023-05-16T01:51:41;10.40;99.90
18654;DHT22;9456;47.824;16.228;2023-05-16T01:54:11;10.40;99.90
18654;DHT22;9456;47.824;16.228;2023-05-16T01:56:39;10.40;99.90
18654;DHT22;9456;47.824;16.228;2023-05-16T01:59:07;10.40;99.90
18654;DHT22;9456;47.824;16.228;2023-05-16T02:01:36;10.40;99.90
18654;DHT22;9456;47.824;16.228;2023-05-16T02:04:05;10.40;99.90
18654;DHT22;9456;47.824;16.228;2023-05-16T02:06:34;10.50;99.90
18654;DHT22;9456;47.824;16.228;2023-05-16T02:09:03;10.50;99.90
18654;DHT22;9456;47.824;16.228;2023-05-16T02:11:32;10.50;99.90
18654;DHT22;9456;47.824;16.228;2023-05-16T02:14:01;10.50;99.90
18654;DHT22;9456;47.824;16.228;2023-05-16T02:16:30;10.50;99.90
18654;DHT22;9456;47.824;16.228;2023-05-16T02:18:59;10.50;99.90
18654;DHT22;9456;47.824;16.228;2023-05-16T02:21:28;10.50;99.90
18654;DHT22;9456;47.824;16.228;2023-05-16T02:23:57;10.50;99.90
18654;DHT22;9456;47.824;16.228;2023-05-16T02:26:26;10.50;99.90
18654;DHT22;9456;47.824;16.228;2023-05-16T02:28:55;10.50;99.90
18654;DHT22;9456;47.824;16.228;2023-05-16T02:31:28;10.50;99.90
18654;DHT22;9456;47.824;16.228;2023-05-16T02:33:56;10.50;99.90
18654;DHT22;9456;47.824;16.228;2023-05-16T02:36:26;10.50;99.90
18654;DHT22;9456;47.824;16.228;2023-05-16T02:38:55;10.60;99.90
18654;DHT22;9456;47.824;16.228;2023-05-16T02:41:24;10.60;99.90
18654;DHT22;9456;47.824;16.228;2023-05-16T02:46:36;10.60;99.90
18654;DHT22;9456;47.824;16.228;2023-05-16T02:49:05;10.60;99.90
18654;DHT22;9456;47.824;16.228;2023-05-16T02:51:34;10.60;99.90
18654;DHT22;9456;47.824;16.228;2023-05-16T02:54:03;10.60;99.90
18654;DHT22;9456;47.824;16.228;2023-05-16T02:56:32;10.60;99.90
18654;DHT22;9456;47.824;16.228;2023-05-16T02:59:01;10.70;99.90
18654;DHT22;9456;47.824;16.228;2023-05-16T03:01:30;10.70;99.90
18654;DHT22;9456;47.824;16.228;2023-05-16T03:03:59;10.70;99.90
18654;DHT22;9456;47.824;16.228;2023-05-16T03:06:28;10.70;99.90
18654;DHT22;9456;47.824;16.228;2023-05-16T03:08:57;10.70;99.90
18654;DHT22;9456;47.824;16.228;2023-05-16T03:11:26;10.70;99.90
18654;DHT22;9456;47.824;16.228;2023-05-16T03:13:54;10.60;99.90
18654;DHT22;9456;47.824;16.228;2023-05-16T03:16:23;10.60;99.90
18654;DHT22;9456;47.824;16.228;2023-05-16T03:18:52;10.60;99.90
18654;DHT22;9456;47.824;16.228;2023-05-16T03:21:21;10.60;99.90
18654;DHT22;9456;47.824;16.228;2023-05-16T03:23:50;10.60;99.90
18654;DHT22;9456;47.824;16.228;2023-05-16T03:26:19;10.60;99.90
18654;DHT22;9456;47.824;16.228;2023-05-16T03:28:49;10.60;99.90
18654;DHT22;9456;47.824;16.228;2023-05-16T03:31:18;10.60;99.90
18654;DHT22;9456;47.824;16.228;2023-05-16T03:33:47;10.60;99.90
18654;DHT22;9456;47.824;16.228;2023-05-16T03:36:16;10.60;99.90
18654;DHT22;9456;47.824;16.228;2023-05-16T03:38:45;10.60;99.90
18654;DHT22;9456;47.824;16.228;2023-05-16T03:41:14;10.60;99.90
18654;DHT22;9456;47.824;16.228;2023-05-16T03:43:43;10.60;99.90
18654;DHT22;9456;47.824;16.228;2023-05-16T03:46:12;10.60;99.90
18654;DHT22;9456;47.824;16.228;2023-05-16T03:49:00;10.60;99.90
18654;DHT22;9456;47.824;16.228;2023-05-16T03:51:29;10.60;99.90
18654;DHT22;9456;47.824;16.228;2023-05-16T03:53:59;10.70;99.90
18654;DHT22;9456;47.824;16.228;2023-05-16T03:56:28;10.70;99.90
18654;DHT22;9456;47.824;16.228;2023-05-16T03:58:57;10.80;99.90
18654;DHT22;9456;47.824;16.228;2023-05-16T04:01:26;10.90;99.90
18654;DHT22;9456;47.824;16.228;2023-05-16T04:03:55;10.90;99.90
18654;DHT22;9456;47.824;16.228;2023-05-16T04:06:24;10.90;99.90
18654;DHT22;9456;47.824;16.228;2023-05-16T04:08:53;11.00;99.90
18654;DHT22;9456;47.824;16.228;2023-05-16T04:11:22;11.00;99.90
18654;DHT22;9456;47.824;16.228;2023-05-16T04:13:51;11.10;99.90
18654;DHT22;9456;47.824;16.228;2023-05-16T04:16:21;11.10;99.90
18654;DHT22;9456;47.824;16.228;2023-05-16T04:18:50;11.20;99.90
18654;DHT22;9456;47.824;16.228;2023-05-16T04:21:19;11.20;99.90
18654;DHT22;9456;47.824;16.228;2023-05-16T04:23:49;11.30;99.90
18654;DHT22;9456;47.824;16.228;2023-05-16T04:26:18;11.30;99.90
18654;DHT22;9456;47.824;16.228;2023-05-16T17:13:41;11.60;99.90
18654;DHT22;9456;47.824;16.228;2023-05-16T17:16:09;11.60;99.90
18654;DHT22;9456;47.824;16.228;2023-05-16T17:18:38;11.60;99.90
18654;DHT22;9456;47.824;16.228;2023-05-16T17:21:07;11.60;99.90
18654;DHT22;9456;47.824;16.228;2023-05-16T17:23:36;11.60;99.90
18654;DHT22;9456;47.824;16.228;2023-05-16T17:26:05;11.50;99.90
18654;DHT22;9456;47.824;16.228;2023-05-16T17:28:34;11.50;99.90
18654;DHT22;9456;47.824;16.228;2023-05-16T17:31:03;11.50;99.90
18654;DHT22;9456;47.824;16.228;2023-05-16T17:33:32;11.50;99.90
18654;DHT22;9456;47.824;16.228;2023-05-16T17:36:01;11.50;99.90
18654;DHT22;9456;47.824;16.228;2023-05-16T17:38:30;11.40;99.90
18654;DHT22;9456;47.824;16.228;2023-05-16T17:40:59;11.50;99.90
18654;DHT22;9456;47.824;16.228;2023-05-16T17:43:28;11.40;99.90
18654;DHT22;9456;47.824;16.228;2023-05-16T17:45:57;11.40;99.90
18654;DHT22;9456;47.824;16.228;2023-05-16T17:48:26;11.40;99.90
18654;DHT22;9456;47.824;16.228;2023-05-16T17:50:55;11.40;99.90
18654;DHT22;9456;47.824;16.228;2023-05-16T17:53:24;11.50;99.90
18654;DHT22;9456;47.824;16.228;2023-05-16T17:55:53;11.40;99.90
18654;DHT22;9456;47.824;16.228;2023-05-16T17:58:22;11.50;99.90
18654;DHT22;9456;47.824;16.228;2023-05-16T18:00:51;11.40;99.90
18654;DHT22;9456;47.824;16.228;2023-05-16T18:03:20;11.40;99.90
18654;DHT22;9456;47.824;16.228;2023-05-16T18:05:48;11.40;99.90
18654;DHT22;9456;47.824;16.228;2023-05-16T18:08:18;11.40;99.90
18654;DHT22;9456;47.824;16.228;2023-05-16T18:10:47;11.40;99.90
18654;DHT22;9456;47.824;16.228;2023-05-16T18:13:16;11.40;99.90
18654;DHT22;9456;47.824;16.228;2023-05-16T18:15:45;11.50;99.90
18654;DHT22;9456;47.824;16.228;2023-05-16T18:18:14;11.50;99.90
18654;DHT22;9456;47.824;16.228;2023-05-16T18:20:43;11.50;99.90
18654;DHT22;9456;47.824;16.228;2023-05-16T18:23:12;11.50;99.90
18654;DHT22;9456;47.824;16.228;2023-05-16T18:25:41;11.50;99.90
18654;DHT22;9456;47.824;16.228;2023-05-16T18:28:10;11.50;99.90
18654;DHT22;9456;47.824;16.228;2023-05-16T18:30:39;11.50;99.90
18654;DHT22;9456;47.824;16.228;2023-05-16T18:33:07;11.60;99.90
18654;DHT22;9456;47.824;16.228;2023-05-16T18:35:37;11.60;99.90
18654;DHT22;9456;47.824;16.228;2023-05-16T18:38:06;11.60;99.90
18654;DHT22;9456;47.824;16.228;2023-05-16T18:40:35;11.50;99.90
18654;DHT22;9456;47.824;16.228;2023-05-16T18:43:04;11.50;99.90
18654;DHT22;9456;47.824;16.228;2023-05-16T18:45:32;11.50;99.90
18654;DHT22;9456;47.824;16.228;2023-05-16T18:48:01;11.50;99.90
18654;DHT22;9456;47.824;16.228;2023-05-16T18:50:30;11.50;99.90
18654;DHT22;9456;47.824;16.228;2023-05-16T18:52:59;11.50;99.90
18654;DHT22;9456;47.824;16.228;2023-05-16T18:55:28;11.50;99.90
18654;DHT22;9456;47.824;16.228;2023-05-16T18:57:57;11.50;99.90
18654;DHT22;9456;47.824;16.228;2023-05-16T19:00:26;11.40;99.90
18654;DHT22;9456;47.824;16.228;2023-05-16T19:02:55;11.40;99.90
18654;DHT22;9456;47.824;16.228;2023-05-16T19:05:24;11.40;99.90
18654;DHT22;9456;47.824;16.228;2023-05-16T19:07:53;11.40;99.90
18654;DHT22;9456;47.824;16.228;2023-05-16T19:10:22;11.40;99.90
18654;DHT22;9456;47.824;16.228;2023-05-16T19:12:51;11.40;99.90
18654;DHT22;9456;47.824;16.228;2023-05-16T19:15:20;11.40;99.90
18654;DHT22;9456;47.824;16.228;2023-05-16T19:17:49;11.40;99.90
18654;DHT22;9456;47.824;16.228;2023-05-16T19:20:18;11.40;99.90
18654;DHT22;9456;47.824;16.228;2023-05-16T19:22:46;11.40;99.90
18654;DHT22;9456;47.824;16.228;2023-05-16T19:25:15;11.40;99.90
18654;DHT22;9456;47.824;16.228;2023-05-16T19:27:44;11.40;99.90
18654;DHT22;9456;47.824;16.228;2023-05-16T19:30:13;11.40;99.90
18654;DHT22;9456;47.824;16.228;2023-05-16T19:32:42;11.40;99.90
18654;DHT22;9456;47.824;16.228;2023-05-16T19:35:11;11.40;99.90
18654;DHT22;9456;47.824;16.228;2023-05-16T19:37:40;11.30;99.90
18654;DHT22;9456;47.824;16.228;2023-05-16T19:40:10;11.30;99.90
18654;DHT22;9456;47.824;16.228;2023-05-16T19:42:40;11.30;99.90
18654;DHT22;9456;47.824;16.228;2023-05-16T19:45:10;11.30;99.90
18654;DHT22;9456;47.824;16.228;2023-05-16T19:47:39;11.30;99.90
18654;DHT22;9456;47.824;16.228;2023-05-16T19:50:09;11.30;99.90
18654;DHT22;9456;47.824;16.228;2023-05-16T19:52:38;11.30;99.90
18654;DHT22;9456;47.824;16.228;2023-05-16T19:55:08;11.30;99.90
18654;DHT22;9456;47.824;16.228;2023-05-16T19:57:37;11.30;99.90
18654;DHT22;9456;47.824;16.228;2023-05-16T20:00:08;11.30;99.90
18654;DHT22;9456;47.824;16.228;2023-05-16T20:02:37;11.30;99.90
18654;DHT22;9456;47.824;16.228;2023-05-16T20:05:08;11.30;99.90
18654;DHT22;9456;47.824;16.228;2023-05-16T20:07:36;11.30;99.90
18654;DHT22;9456;47.824;16.228;2023-05-16T20:10:08;11.30;99.90
18654;DHT22;9456;47.824;16.228;2023-05-16T20:12:37;11.30;99.90
18654;DHT22;9456;47.824;16.228;2023-05-16T20:15:08;11.30;99.90
18654;DHT22;9456;47.824;16.228;2023-05-16T20:17:36;11.30;99.90
18654;DHT22;9456;47.824;16.228;2023-05-16T20:20:07;11.30;99.90
18654;DHT22;9456;47.824;16.228;2023-05-16T20:22:35;11.30;99.90
18654;DHT22;9456;47.824;16.228;2023-05-16T20:25:07;11.30;99.90
18654;DHT22;9456;47.824;16.228;2023-05-16T20:27:36;11.30;99.90
18654;DHT22;9456;47.824;16.228;2023-05-16T20:30:06;11.30;99.90
18654;DHT22;9456;47.824;16.228;2023-05-16T20:32:35;11.30;99.90
18654;DHT22;9456;47.824;16.228;2023-05-16T20:35:05;11.30;99.90
18654;DHT22;9456;47.824;16.228;2023-05-16T20:37:34;11.40;99.90
18654;DHT22;9456;47.824;16.228;2023-05-16T20:40:03;11.30;99.90
18654;DHT22;9456;47.824;16.228;2023-05-16T20:42:33;11.40;99.90
18654;DHT22;9456;47.824;16.228;2023-05-16T20:45:02;11.40;99.90
18654;DHT22;9456;47.824;16.228;2023-05-16T20:47:31;11.40;99.90
18654;DHT22;9456;47.824;16.228;2023-05-16T20:50:01;11.40;99.90
18654;DHT22;9456;47.824;16.228;2023-05-16T20:52:29;11.40;99.90
18654;DHT22;9456;47.824;16.228;2023-05-16T20:54:58;11.40;99.90
18654;DHT22;9456;47.824;16.228;2023-05-16T20:57:28;11.40;99.90
18654;DHT22;9456;47.824;16.228;2023-05-16T20:59:57;11.40;99.90
18654;DHT22;9456;47.824;16.228;2023-05-16T21:02:25;11.40;99.90
18654;DHT22;9456;47.824;16.228;2023-05-16T21:04:54;11.40;99.90
18654;DHT22;9456;47.824;16.228;2023-05-16T21:07:23;11.40;99.90
18654;DHT22;9456;47.824;16.228;2023-05-16T21:09:52;11.40;99.90
18654;DHT22;9456;47.824;16.228;2023-05-16T21:12:21;11.40;99.90
18654;DHT22;9456;47.824;16.228;2023-05-16T21:14:50;11.50;99.90
18654;DHT22;9456;47.824;16.228;2023-05-16T21:17:19;11.50;99.90
18654;DHT22;9456;47.824;16.228;2023-05-16T21:19:48;11.50;99.90
18654;DHT22;9456;47.824;16.228;2023-05-16T21:22:17;11.50;99.90
18654;DHT22;9456;47.824;16.228;2023-05-16T21:24:46;11.50;99.90
18654;DHT22;9456;47.824;16.228;2023-05-16T21:27:15;11.50;99.90
18654;DHT22;9456;47.824;16.228;2023-05-16T21:29:44;11.50;99.90
18654;DHT22;9456;47.824;16.228;2023-05-16T21:32:13;11.50;99.90
18654;DHT22;9456;47.824;16.228;2023-05-16T21:34:42;11.50;99.90
18654;DHT22;9456;47.824;16.228;2023-05-16T21:37:11;11.50;99.90
18654;DHT22;9456;47.824;16.228;2023-05-16T21:39:40;11.50;99.90
18654;DHT22;9456;47.824;16.228;2023-05-16T21:42:09;11.50;99.90
18654;DHT22;9456;47.824;16.228;2023-05-16T21:44:38;11.50;99.90
18654;DHT22;9456;47.824;16.228;2023-05-16T21:47:07;11.50;99.90
18654;DHT22;9456;47.824;16.228;2023-05-16T21:49:36;11.50;99.90
18654;DHT22;9456;47.824;16.228;2023-05-16T21:52:06;11.50;99.90
18654;DHT22;9456;47.824;16.228;2023-05-16T21:54:34;11.50;99.90
18654;DHT22;9456;47.824;16.228;2023-05-16T21:57:04;11.50;99.90
18654;DHT22;9456;47.824;16.228;2023-05-16T21:59:33;11.60;99.90
18654;DHT22;9456;47.824;16.228;2023-05-16T22:02:02;11.60;99.90
18654;DHT22;9456;47.824;16.228;2023-05-16T22:04:30;11.60;99.90
18654;DHT22;9456;47.824;16.228;2023-05-16T22:06:59;11.60;99.90
18654;DHT22;9456;47.824;16.228;2023-05-16T22:09:28;11.60;99.90
18654;DHT22;9456;47.824;16.228;2023-05-16T22:11:57;11.60;99.90
18654;DHT22;9456;47.824;16.228;2023-05-16T22:14:26;11.60;99.90
18654;DHT22;9456;47.824;16.228;2023-05-16T22:16:55;11.60;99.90
18654;DHT22;9456;47.824;16.228;2023-05-16T22:19:24;11.60;99.90
18654;DHT22;9456;47.824;16.228;2023-05-16T22:21:53;11.50;99.90
18654;DHT22;9456;47.824;16.228;2023-05-16T22:24:22;11.50;99.90
18654;DHT22;9456;47.824;16.228;2023-05-16T22:26:51;11.60;99.90
18654;DHT22;9456;47.824;16.228;2023-05-16T22:29:20;11.60;99.90
18654;DHT22;9456;47.824;16.228;2023-05-16T22:31:49;11.50;99.90
18654;DHT22;9456;47.824;16.228;2023-05-16T22:34:18;11.60;99.90
18654;DHT22;9456;47.824;16.228;2023-05-16T22:36:47;11.50;99.90
18654;DHT22;9456;47.824;16.228;2023-05-16T22:39:16;11.60;99.90
18654;DHT22;9456;47.824;16.228;2023-05-16T22:41:45;11.60;99.90
18654;DHT22;9456;47.824;16.228;2023-05-16T22:44:14;11.60;99.90
18654;DHT22;9456;47.824;16.228;2023-05-16T22:46:43;11.60;99.90
18654;DHT22;9456;47.824;16.228;2023-05-16T22:49:11;11.60;99.90
18654;DHT22;9456;47.824;16.228;2023-05-16T22:51:40;11.50;99.90
18654;DHT22;9456;47.824;16.228;2023-05-16T22:54:09;11.60;99.90
18654;DHT22;9456;47.824;16.228;2023-05-16T22:56:38;11.60;99.90
18654;DHT22;9456;47.824;16.228;2023-05-16T22:59:07;11.60;99.90
18654;DHT22;9456;47.824;16.228;2023-05-16T23:01:36;11.60;99.90
18654;DHT22;9456;47.824;16.228;2023-05-16T23:04:05;11.50;99.90
18654;DHT22;9456;47.824;16.228;2023-05-16T23:06:34;11.50;99.90
18654;DHT22;9456;47.824;16.228;2023-05-16T23:09:03;11.50;99.90
18654;DHT22;9456;47.824;16.228;2023-05-16T23:11:32;11.50;99.90
18654;DHT22;9456;47.824;16.228;2023-05-16T23:14:01;11.50;99.90
18654;DHT22;9456;47.824;16.228;2023-05-16T23:16:30;11.50;99.90
18654;DHT22;9456;47.824;16.228;2023-05-16T23:18:59;11.50;99.90
18654;DHT22;9456;47.824;16.228;2023-05-16T23:21:28;11.50;99.90
18654;DHT22;9456;47.824;16.228;2023-05-16T23:23:57;11.50;99.90
18654;DHT22;9456;47.824;16.228;2023-05-16T23:26:29;11.50;99.90
18654;DHT22;9456;47.824;16.228;2023-05-16T23:28:58;11.50;99.90
18654;DHT22;9456;47.824;16.228;2023-05-16T23:31:27;11.50;99.90
18654;DHT22;9456;47.824;16.228;2023-05-16T23:33:55;11.50;99.90
18654;DHT22;9456;47.824;16.228;2023-05-16T23:36:24;11.50;99.90
18654;DHT22;9456;47.824;16.228;2023-05-16T23:38:53;11.50;99.90
18654;DHT22;9456;47.824;16.228;2023-05-16T23:41:22;11.50;99.90
18654;DHT22;9456;47.824;16.228;2023-05-16T23:43:51;11.40;99.90
18654;DHT22;9456;47.824;16.228;2023-05-16T23:46:20;11.40;99.90
18654;DHT22;9456;47.824;16.228;2023-05-16T23:48:49;11.40;99.90
18654;DHT22;9456;47.824;16.228;2023-05-16T23:51:18;11.40;99.90
18654;DHT22;9456;47.824;16.228;2023-05-16T23:53:47;11.40;99.90
18654;DHT22;9456;47.824;16.228;2023-05-16T23:56:16;11.30;99.90
18654;DHT22;9456;47.824;16.228;2023-05-16T23:58:44;11.30;99.90
